sensor_id;sensor_type;location;lat;lon;timestamp;temperature;humidity
19817;DHT22;68323;49.394;8.434;2023-08-06T00:01:49;18.10;99.90
19817;DHT22;68323;49.394;8.434;2023-08-06T00:04:15;18.10;99.90
19817;DHT22;68323;49.394;8.434;2023-08-06T00:06:40;18.10;99.90
19817;DHT22;68323;49.394;8.434;2023-08-06T00:09:06;18.10;99.90
19817;DHT22;68323;49.394;8.434;2023-08-06T00:11:31;18.10;99.90
19817;DHT22;68323;49.394;8.434;2023-08-06T00:13:57;18.10;99.90
19817;DHT22;68323;49.394;8.434;2023-08-06T00:16:22;18.10;99.90
19817;DHT22;68323;49.394;8.434;2023-08-06T00:18:48;18.10;99.90
19817;DHT22;68323;49.394;8.434;2023-08-06T00:21:14;18.10;99.90
19817;DHT22;68323;49.394;8.434;2023-08-06T00:23:40;18.10;99.90
19817;DHT22;68323;49.394;8.434;2023-08-06T00:26:05;18.10;99.90
19817;DHT22;68323;49.394;8.434;2023-08-06T00:28:31;18.10;99.90
19817;DHT22;68323;49.394;8.434;2023-08-06T00:30:57;18.20;99.90
19817;DHT22;68323;49.394;8.434;2023-08-06T00:33:23;18.20;99.90
19817;DHT22;68323;49.394;8.434;2023-08-06T00:35:49;18.20;99.90
19817;DHT22;68323;49.394;8.434;2023-08-06T00:38:14;18.20;99.90
19817;DHT22;68323;49.394;8.434;2023-08-06T00:40:40;18.20;99.90
19817;DHT22;68323;49.394;8.434;2023-08-06T00:43:05;18.20;99.90
19817;DHT22;68323;49.394;8.434;2023-08-06T00:45:35;18.30;99.90
19817;DHT22;68323;49.394;8.434;2023-08-06T00:48:01;18.20;99.90
19817;DHT22;68323;49.394;8.434;2023-08-06T00:50:27;18.20;99.90
19817;DHT22;68323;49.394;8.434;2023-08-06T00:52:53;18.20;99.90
19817;DHT22;68323;49.394;8.434;2023-08-06T00:55:18;18.20;99.90
19817;DHT22;68323;49.394;8.434;2023-08-06T00:57:44;18.20;99.90
19817;DHT22;68323;49.394;8.434;2023-08-06T01:00:10;18.20;99.90
19817;DHT22;68323;49.394;8.434;2023-08-06T01:02:36;18.20;99.90
19817;DHT22;68323;49.394;8.434;2023-08-06T01:05:02;18.10;99.90
19817;DHT22;68323;49.394;8.434;2023-08-06T01:07:51;18.10;99.90
19817;DHT22;68323;49.394;8.434;2023-08-06T01:13:05;18.10;99.90
19817;DHT22;68323;49.394;8.434;2023-08-06T01:15:41;18.10;99.90
19817;DHT22;68323;49.394;8.434;2023-08-06T01:18:07;18.10;99.90
19817;DHT22;68323;49.394;8.434;2023-08-06T01:20:33;18.10;99.90
19817;DHT22;68323;49.394;8.434;2023-08-06T01:22:59;18.00;99.90
19817;DHT22;68323;49.394;8.434;2023-08-06T01:25:35;18.00;99.90
19817;DHT22;68323;49.394;8.434;2023-08-06T01:28:10;18.00;99.90
19817;DHT22;68323;49.394;8.434;2023-08-06T01:30:39;17.90;99.90
19817;DHT22;68323;49.394;8.434;2023-08-06T01:33:08;17.90;99.90
19817;DHT22;68323;49.394;8.434;2023-08-06T01:35:35;17.80;99.90
19817;DHT22;68323;49.394;8.434;2023-08-06T01:38:03;17.80;99.90
19817;DHT22;68323;49.394;8.434;2023-08-06T01:40:29;17.70;99.90
19817;DHT22;68323;49.394;8.434;2023-08-06T01:42:55;17.70;99.90
19817;DHT22;68323;49.394;8.434;2023-08-06T01:45:20;17.60;99.90
19817;DHT22;68323;49.394;8.434;2023-08-06T01:47:46;17.60;99.90
19817;DHT22;68323;49.394;8.434;2023-08-06T01:50:11;17.60;99.90
19817;DHT22;68323;49.394;8.434;2023-08-06T01:52:37;17.60;99.90
19817;DHT22;68323;49.394;8.434;2023-08-06T01:55:02;17.60;99.90
19817;DHT22;68323;49.394;8.434;2023-08-06T01:57:28;17.60;99.90
19817;DHT22;68323;49.394;8.434;2023-08-06T01:59:54;17.60;99.90
19817;DHT22;68323;49.394;8.434;2023-08-06T02:02:19;17.60;99.90
19817;DHT22;68323;49.394;8.434;2023-08-06T02:04:45;17.70;99.90
19817;DHT22;68323;49.394;8.434;2023-08-06T02:07:10;17.70;99.90
19817;DHT22;68323;49.394;8.434;2023-08-06T02:09:36;17.70;99.90
19817;DHT22;68323;49.394;8.434;2023-08-06T02:12:01;17.70;99.90
19817;DHT22;68323;49.394;8.434;2023-08-06T02:14:27;17.80;99.90
19817;DHT22;68323;49.394;8.434;2023-08-06T02:16:53;17.80;99.90
19817;DHT22;68323;49.394;8.434;2023-08-06T02:19:19;17.80;99.90
19817;DHT22;68323;49.394;8.434;2023-08-06T02:21:44;17.80;99.90
19817;DHT22;68323;49.394;8.434;2023-08-06T02:24:10;17.80;99.90
19817;DHT22;68323;49.394;8.434;2023-08-06T02:26:35;17.70;99.90
19817;DHT22;68323;49.394;8.434;2023-08-06T02:29:01;17.70;99.90
19817;DHT22;68323;49.394;8.434;2023-08-06T02:31:26;17.80;99.90
19817;DHT22;68323;49.394;8.434;2023-08-06T02:33:52;17.80;99.90
19817;DHT22;68323;49.394;8.434;2023-08-06T02:36:19;17.80;99.90
19817;DHT22;68323;49.394;8.434;2023-08-06T02:38:44;17.70;99.90
19817;DHT22;68323;49.394;8.434;2023-08-06T02:41:10;17.70;99.90
19817;DHT22;68323;49.394;8.434;2023-08-06T02:43:35;17.60;99.90
19817;DHT22;68323;49.394;8.434;2023-08-06T02:46:01;17.60;99.90
19817;DHT22;68323;49.394;8.434;2023-08-06T02:48:27;17.50;99.90
19817;DHT22;68323;49.394;8.434;2023-08-06T02:50:56;17.40;99.90
19817;DHT22;68323;49.394;8.434;2023-08-06T02:53:22;17.40;99.90
19817;DHT22;68323;49.394;8.434;2023-08-06T02:55:48;17.30;99.90
19817;DHT22;68323;49.394;8.434;2023-08-06T02:58:14;17.20;99.90
19817;DHT22;68323;49.394;8.434;2023-08-06T03:00:40;17.10;99.90
19817;DHT22;68323;49.394;8.434;2023-08-06T03:03:05;17.00;99.90
19817;DHT22;68323;49.394;8.434;2023-08-06T03:05:31;17.00;99.90
19817;DHT22;68323;49.394;8.434;2023-08-06T03:07:56;16.90;99.90
19817;DHT22;68323;49.394;8.434;2023-08-06T03:10:22;16.90;99.90
19817;DHT22;68323;49.394;8.434;2023-08-06T03:12:47;16.80;99.90
19817;DHT22;68323;49.394;8.434;2023-08-06T03:15:13;16.80;99.90
19817;DHT22;68323;49.394;8.434;2023-08-06T03:17:38;16.80;99.90
19817;DHT22;68323;49.394;8.434;2023-08-06T03:20:05;16.80;99.90
19817;DHT22;68323;49.394;8.434;2023-08-06T03:22:31;16.80;99.90
19817;DHT22;68323;49.394;8.434;2023-08-06T03:24:57;16.90;99.90
19817;DHT22;68323;49.394;8.434;2023-08-06T03:27:22;16.90;99.90
19817;DHT22;68323;49.394;8.434;2023-08-06T03:29:51;16.90;99.90
19817;DHT22;68323;49.394;8.434;2023-08-06T03:32:16;16.90;99.90
19817;DHT22;68323;49.394;8.434;2023-08-06T03:34:42;17.00;99.90
19817;DHT22;68323;49.394;8.434;2023-08-06T03:37:08;17.00;99.90
19817;DHT22;68323;49.394;8.434;2023-08-06T03:39:33;17.00;99.90
19817;DHT22;68323;49.394;8.434;2023-08-06T03:41:59;17.10;99.90
19817;DHT22;68323;49.394;8.434;2023-08-06T03:44:24;17.10;99.90
19817;DHT22;68323;49.394;8.434;2023-08-06T03:46:50;17.20;99.90
19817;DHT22;68323;49.394;8.434;2023-08-06T03:49:15;17.20;99.90
19817;DHT22;68323;49.394;8.434;2023-08-06T03:51:41;17.20;99.90
19817;DHT22;68323;49.394;8.434;2023-08-06T03:54:07;17.20;99.90
19817;DHT22;68323;49.394;8.434;2023-08-06T03:56:32;17.20;99.90
19817;DHT22;68323;49.394;8.434;2023-08-06T03:58:57;17.20;99.90
19817;DHT22;68323;49.394;8.434;2023-08-06T04:01:23;17.30;99.90
19817;DHT22;68323;49.394;8.434;2023-08-06T04:03:48;17.30;99.90
19817;DHT22;68323;49.394;8.434;2023-08-06T04:06:14;17.30;99.90
19817;DHT22;68323;49.394;8.434;2023-08-06T04:08:40;17.30;99.90
19817;DHT22;68323;49.394;8.434;2023-08-06T04:11:05;17.30;99.90
19817;DHT22;68323;49.394;8.434;2023-08-06T04:13:31;17.30;99.90
19817;DHT22;68323;49.394;8.434;2023-08-06T04:16:01;17.20;99.90
19817;DHT22;68323;49.394;8.434;2023-08-06T04:18:26;17.20;99.90
19817;DHT22;68323;49.394;8.434;2023-08-06T04:20:52;17.10;99.90
19817;DHT22;68323;49.394;8.434;2023-08-06T04:23:20;17.10;99.90
19817;DHT22;68323;49.394;8.434;2023-08-06T04:25:46;17.00;99.90
19817;DHT22;68323;49.394;8.434;2023-08-06T04:28:11;17.00;99.90
19817;DHT22;68323;49.394;8.434;2023-08-06T04:30:37;17.00;99.90
19817;DHT22;68323;49.394;8.434;2023-08-06T04:33:03;17.00;99.90
19817;DHT22;68323;49.394;8.434;2023-08-06T04:35:28;17.10;99.90
19817;DHT22;68323;49.394;8.434;2023-08-06T04:37:54;17.10;99.90
19817;DHT22;68323;49.394;8.434;2023-08-06T04:40:19;17.10;99.90
19817;DHT22;68323;49.394;8.434;2023-08-06T04:42:45;17.20;99.90
19817;DHT22;68323;49.394;8.434;2023-08-06T04:45:10;17.20;99.90
19817;DHT22;68323;49.394;8.434;2023-08-06T04:47:36;17.20;99.90
19817;DHT22;68323;49.394;8.434;2023-08-06T04:50:01;17.20;99.90
19817;DHT22;68323;49.394;8.434;2023-08-06T04:52:27;17.30;99.90
19817;DHT22;68323;49.394;8.434;2023-08-06T04:54:54;17.30;99.90
19817;DHT22;68323;49.394;8.434;2023-08-06T04:57:19;17.30;99.90
19817;DHT22;68323;49.394;8.434;2023-08-06T04:59:45;17.30;99.90
19817;DHT22;68323;49.394;8.434;2023-08-06T05:02:11;17.30;99.90
19817;DHT22;68323;49.394;8.434;2023-08-06T05:04:36;17.30;99.90
19817;DHT22;68323;49.394;8.434;2023-08-06T05:07:02;17.20;99.90
19817;DHT22;68323;49.394;8.434;2023-08-06T05:09:28;17.10;99.90
19817;DHT22;68323;49.394;8.434;2023-08-06T05:11:54;17.10;99.90
19817;DHT22;68323;49.394;8.434;2023-08-06T05:14:19;17.10;99.90
19817;DHT22;68323;49.394;8.434;2023-08-06T05:16:45;17.10;99.90
19817;DHT22;68323;49.394;8.434;2023-08-06T05:19:10;17.00;99.90
19817;DHT22;68323;49.394;8.434;2023-08-06T05:21:35;17.00;99.90
19817;DHT22;68323;49.394;8.434;2023-08-06T05:24:01;17.00;99.90
19817;DHT22;68323;49.394;8.434;2023-08-06T05:26:27;17.00;99.90
19817;DHT22;68323;49.394;8.434;2023-08-06T05:28:52;16.90;99.90
19817;DHT22;68323;49.394;8.434;2023-08-06T05:31:18;16.90;99.90
19817;DHT22;68323;49.394;8.434;2023-08-06T05:33:43;16.90;99.90
19817;DHT22;68323;49.394;8.434;2023-08-06T05:36:09;16.90;99.90
19817;DHT22;68323;49.394;8.434;2023-08-06T05:38:34;17.00;99.90
19817;DHT22;68323;49.394;8.434;2023-08-06T05:41:00;16.90;99.90
19817;DHT22;68323;49.394;8.434;2023-08-06T05:43:26;16.90;99.90
19817;DHT22;68323;49.394;8.434;2023-08-06T05:45:51;16.90;99.90
19817;DHT22;68323;49.394;8.434;2023-08-06T05:48:17;17.00;99.90
19817;DHT22;68323;49.394;8.434;2023-08-06T05:50:42;17.00;99.90
19817;DHT22;68323;49.394;8.434;2023-08-06T05:53:08;17.10;99.90
19817;DHT22;68323;49.394;8.434;2023-08-06T05:55:34;17.10;99.90
19817;DHT22;68323;49.394;8.434;2023-08-06T05:57:59;17.10;99.90
19817;DHT22;68323;49.394;8.434;2023-08-06T06:00:26;17.10;99.90
19817;DHT22;68323;49.394;8.434;2023-08-06T06:02:52;17.10;99.90
19817;DHT22;68323;49.394;8.434;2023-08-06T06:05:18;17.10;99.90
19817;DHT22;68323;49.394;8.434;2023-08-06T06:07:43;17.10;99.90
19817;DHT22;68323;49.394;8.434;2023-08-06T06:10:09;17.10;99.90
19817;DHT22;68323;49.394;8.434;2023-08-06T06:12:34;17.10;99.90
19817;DHT22;68323;49.394;8.434;2023-08-06T06:15:00;17.20;99.90
19817;DHT22;68323;49.394;8.434;2023-08-06T06:17:27;17.20;99.90
19817;DHT22;68323;49.394;8.434;2023-08-06T06:19:52;17.20;99.90
19817;DHT22;68323;49.394;8.434;2023-08-06T06:22:18;17.20;99.90
19817;DHT22;68323;49.394;8.434;2023-08-06T06:24:43;17.30;99.90
19817;DHT22;68323;49.394;8.434;2023-08-06T06:27:09;17.30;99.90
19817;DHT22;68323;49.394;8.434;2023-08-06T06:29:34;17.40;99.90
19817;DHT22;68323;49.394;8.434;2023-08-06T06:32:00;17.40;99.90
19817;DHT22;68323;49.394;8.434;2023-08-06T06:34:25;17.50;99.90
19817;DHT22;68323;49.394;8.434;2023-08-06T06:36:51;17.60;99.90
19817;DHT22;68323;49.394;8.434;2023-08-06T06:39:17;17.60;99.90
19817;DHT22;68323;49.394;8.434;2023-08-06T06:41:43;17.70;99.90
19817;DHT22;68323;49.394;8.434;2023-08-06T06:44:09;17.80;99.90
19817;DHT22;68323;49.394;8.434;2023-08-06T06:46:35;17.80;99.90
19817;DHT22;68323;49.394;8.434;2023-08-06T06:49:01;17.80;99.90
19817;DHT22;68323;49.394;8.434;2023-08-06T06:51:27;17.90;99.90
19817;DHT22;68323;49.394;8.434;2023-08-06T06:53:52;17.80;99.90
19817;DHT22;68323;49.394;8.434;2023-08-06T06:56:18;17.90;99.90
19817;DHT22;68323;49.394;8.434;2023-08-06T06:58:43;17.90;99.90
19817;DHT22;68323;49.394;8.434;2023-08-06T07:01:09;18.00;99.90
19817;DHT22;68323;49.394;8.434;2023-08-06T07:03:37;18.10;99.90
19817;DHT22;68323;49.394;8.434;2023-08-06T07:06:03;18.20;99.90
19817;DHT22;68323;49.394;8.434;2023-08-06T07:08:29;18.40;99.90
19817;DHT22;68323;49.394;8.434;2023-08-06T07:11:06;18.50;99.90
19817;DHT22;68323;49.394;8.434;2023-08-06T07:13:32;18.70;99.90
19817;DHT22;68323;49.394;8.434;2023-08-06T07:16:01;18.80;99.90
19817;DHT22;68323;49.394;8.434;2023-08-06T07:18:27;18.80;99.90
19817;DHT22;68323;49.394;8.434;2023-08-06T07:20:53;18.80;99.90
19817;DHT22;68323;49.394;8.434;2023-08-06T07:23:21;18.80;99.90
19817;DHT22;68323;49.394;8.434;2023-08-06T07:25:47;18.90;99.90
19817;DHT22;68323;49.394;8.434;2023-08-06T07:28:13;18.90;99.90
19817;DHT22;68323;49.394;8.434;2023-08-06T07:30:42;19.00;99.90
19817;DHT22;68323;49.394;8.434;2023-08-06T07:33:08;19.00;99.90
19817;DHT22;68323;49.394;8.434;2023-08-06T07:35:34;19.10;99.90
19817;DHT22;68323;49.394;8.434;2023-08-06T07:38:00;19.00;99.90
19817;DHT22;68323;49.394;8.434;2023-08-06T07:40:26;19.00;99.90
19817;DHT22;68323;49.394;8.434;2023-08-06T07:42:52;18.90;99.90
19817;DHT22;68323;49.394;8.434;2023-08-06T07:45:17;18.80;99.90
19817;DHT22;68323;49.394;8.434;2023-08-06T07:47:43;18.70;99.90
19817;DHT22;68323;49.394;8.434;2023-08-06T07:50:09;18.80;99.90
19817;DHT22;68323;49.394;8.434;2023-08-06T07:52:35;18.80;99.90
19817;DHT22;68323;49.394;8.434;2023-08-06T07:55:00;19.00;99.90
19817;DHT22;68323;49.394;8.434;2023-08-06T07:57:32;19.20;99.90
19817;DHT22;68323;49.394;8.434;2023-08-06T07:59:59;19.40;99.90
19817;DHT22;68323;49.394;8.434;2023-08-06T08:02:25;19.60;99.90
19817;DHT22;68323;49.394;8.434;2023-08-06T08:04:51;19.80;99.90
19817;DHT22;68323;49.394;8.434;2023-08-06T08:07:16;20.10;99.90
19817;DHT22;68323;49.394;8.434;2023-08-06T08:09:42;20.30;99.90
19817;DHT22;68323;49.394;8.434;2023-08-06T08:12:07;20.50;99.90
19817;DHT22;68323;49.394;8.434;2023-08-06T08:14:33;20.50;99.90
19817;DHT22;68323;49.394;8.434;2023-08-06T08:17:04;20.40;99.90
19817;DHT22;68323;49.394;8.434;2023-08-06T08:19:34;20.30;99.90
19817;DHT22;68323;49.394;8.434;2023-08-06T08:21:59;20.00;99.90
19817;DHT22;68323;49.394;8.434;2023-08-06T08:24:25;19.80;99.90
19817;DHT22;68323;49.394;8.434;2023-08-06T08:26:52;19.80;99.90
19817;DHT22;68323;49.394;8.434;2023-08-06T08:29:19;19.70;99.90
19817;DHT22;68323;49.394;8.434;2023-08-06T08:31:44;19.60;99.90
19817;DHT22;68323;49.394;8.434;2023-08-06T08:34:10;19.60;99.90
19817;DHT22;68323;49.394;8.434;2023-08-06T08:36:36;19.90;99.90
19817;DHT22;68323;49.394;8.434;2023-08-06T08:39:01;20.50;99.90
19817;DHT22;68323;49.394;8.434;2023-08-06T08:41:30;20.90;99.90
19817;DHT22;68323;49.394;8.434;2023-08-06T08:43:58;21.30;99.90
19817;DHT22;68323;49.394;8.434;2023-08-06T08:46:27;21.80;99.90
19817;DHT22;68323;49.394;8.434;2023-08-06T08:48:54;22.70;99.90
19817;DHT22;68323;49.394;8.434;2023-08-06T08:51:21;24.00;99.90
19817;DHT22;68323;49.394;8.434;2023-08-06T08:53:47;25.40;99.90
19817;DHT22;68323;49.394;8.434;2023-08-06T08:56:13;26.10;97.70
19817;DHT22;68323;49.394;8.434;2023-08-06T08:58:40;26.00;95.90
19817;DHT22;68323;49.394;8.434;2023-08-06T09:01:06;25.50;97.00
19817;DHT22;68323;49.394;8.434;2023-08-06T09:03:32;24.70;97.80
19817;DHT22;68323;49.394;8.434;2023-08-06T09:06:00;24.10;99.10
19817;DHT22;68323;49.394;8.434;2023-08-06T09:08:31;23.30;99.90
19817;DHT22;68323;49.394;8.434;2023-08-06T09:10:58;22.80;99.90
19817;DHT22;68323;49.394;8.434;2023-08-06T09:13:25;22.40;99.90
19817;DHT22;68323;49.394;8.434;2023-08-06T09:15:51;22.60;99.90
19817;DHT22;68323;49.394;8.434;2023-08-06T09:18:25;23.80;99.90
19817;DHT22;68323;49.394;8.434;2023-08-06T09:20:52;25.30;99.20
19817;DHT22;68323;49.394;8.434;2023-08-06T09:23:17;26.10;94.90
19817;DHT22;68323;49.394;8.434;2023-08-06T09:25:43;26.40;92.40
19817;DHT22;68323;49.394;8.434;2023-08-06T09:28:08;26.30;91.30
19817;DHT22;68323;49.394;8.434;2023-08-06T09:30:36;26.00;90.10
19817;DHT22;68323;49.394;8.434;2023-08-06T09:33:03;25.40;90.80
19817;DHT22;68323;49.394;8.434;2023-08-06T09:35:29;24.80;91.40
19817;DHT22;68323;49.394;8.434;2023-08-06T09:37:59;24.10;91.00
19817;DHT22;68323;49.394;8.434;2023-08-06T09:40:30;23.50;92.20
19817;DHT22;68323;49.394;8.434;2023-08-06T09:42:57;22.90;92.90
19817;DHT22;68323;49.394;8.434;2023-08-06T09:45:27;22.30;94.10
19817;DHT22;68323;49.394;8.434;2023-08-06T09:47:56;21.90;95.50
19817;DHT22;68323;49.394;8.434;2023-08-06T09:50:22;21.60;96.80
19817;DHT22;68323;49.394;8.434;2023-08-06T09:52:48;21.60;97.40
19817;DHT22;68323;49.394;8.434;2023-08-06T09:55:16;21.60;97.40
19817;DHT22;68323;49.394;8.434;2023-08-06T09:57:42;21.50;97.30
19817;DHT22;68323;49.394;8.434;2023-08-06T10:00:09;21.50;98.10
19817;DHT22;68323;49.394;8.434;2023-08-06T10:02:37;21.40;98.20
19817;DHT22;68323;49.394;8.434;2023-08-06T10:05:05;21.30;99.20
19817;DHT22;68323;49.394;8.434;2023-08-06T10:07:31;21.20;99.60
19817;DHT22;68323;49.394;8.434;2023-08-06T10:09:56;21.10;99.90
19817;DHT22;68323;49.394;8.434;2023-08-06T10:12:23;21.10;99.50
19817;DHT22;68323;49.394;8.434;2023-08-06T10:14:51;21.10;99.20
19817;DHT22;68323;49.394;8.434;2023-08-06T10:17:19;21.00;99.00
19817;DHT22;68323;49.394;8.434;2023-08-06T10:19:46;21.00;98.90
19817;DHT22;68323;49.394;8.434;2023-08-06T10:22:16;20.90;99.80
19817;DHT22;68323;49.394;8.434;2023-08-06T10:24:56;20.80;99.90
19817;DHT22;68323;49.394;8.434;2023-08-06T10:27:33;20.80;99.90
19817;DHT22;68323;49.394;8.434;2023-08-06T10:30:22;20.60;99.90
19817;DHT22;68323;49.394;8.434;2023-08-06T10:32:50;20.50;99.90
19817;DHT22;68323;49.394;8.434;2023-08-06T10:40:36;20.00;99.90
19817;DHT22;68323;49.394;8.434;2023-08-06T10:43:03;19.90;99.90
19817;DHT22;68323;49.394;8.434;2023-08-06T10:45:29;19.80;99.90
19817;DHT22;68323;49.394;8.434;2023-08-06T10:47:56;19.70;99.90
19817;DHT22;68323;49.394;8.434;2023-08-06T10:50:25;19.70;99.90
19817;DHT22;68323;49.394;8.434;2023-08-06T10:52:52;19.60;99.90
19817;DHT22;68323;49.394;8.434;2023-08-06T10:55:28;19.50;99.90
19817;DHT22;68323;49.394;8.434;2023-08-06T10:57:55;19.50;99.90
19817;DHT22;68323;49.394;8.434;2023-08-06T11:00:24;19.40;99.90
19817;DHT22;68323;49.394;8.434;2023-08-06T11:02:50;19.40;99.90
19817;DHT22;68323;49.394;8.434;2023-08-06T11:05:16;19.40;99.90
19817;DHT22;68323;49.394;8.434;2023-08-06T11:07:42;19.30;99.90
19817;DHT22;68323;49.394;8.434;2023-08-06T11:10:09;19.40;99.90
19817;DHT22;68323;49.394;8.434;2023-08-06T11:12:35;19.40;99.90
19817;DHT22;68323;49.394;8.434;2023-08-06T11:15:02;19.30;99.90
19817;DHT22;68323;49.394;8.434;2023-08-06T11:17:29;19.40;99.90
19817;DHT22;68323;49.394;8.434;2023-08-06T11:19:56;19.40;99.90
19817;DHT22;68323;49.394;8.434;2023-08-06T11:22:24;19.40;99.90
19817;DHT22;68323;49.394;8.434;2023-08-06T11:24:49;19.50;99.90
19817;DHT22;68323;49.394;8.434;2023-08-06T11:27:16;19.60;99.90
19817;DHT22;68323;49.394;8.434;2023-08-06T11:29:43;19.80;99.90
19817;DHT22;68323;49.394;8.434;2023-08-06T11:32:09;19.90;99.90
19817;DHT22;68323;49.394;8.434;2023-08-06T11:34:35;20.00;99.90
19817;DHT22;68323;49.394;8.434;2023-08-06T11:37:03;20.20;99.90
19817;DHT22;68323;49.394;8.434;2023-08-06T11:39:30;20.20;99.90
19817;DHT22;68323;49.394;8.434;2023-08-06T11:41:55;20.40;99.90
19817;DHT22;68323;49.394;8.434;2023-08-06T11:44:22;20.40;99.90
19817;DHT22;68323;49.394;8.434;2023-08-06T11:46:56;20.50;99.90
19817;DHT22;68323;49.394;8.434;2023-08-06T11:52:13;20.40;99.90
19817;DHT22;68323;49.394;8.434;2023-08-06T11:54:39;20.40;99.90
19817;DHT22;68323;49.394;8.434;2023-08-06T11:57:05;20.40;99.90
19817;DHT22;68323;49.394;8.434;2023-08-06T11:59:32;20.30;99.90
19817;DHT22;68323;49.394;8.434;2023-08-06T12:01:57;20.30;99.90
19817;DHT22;68323;49.394;8.434;2023-08-06T12:04:23;20.20;99.90
19817;DHT22;68323;49.394;8.434;2023-08-06T12:06:48;20.20;99.90
19817;DHT22;68323;49.394;8.434;2023-08-06T12:09:14;20.10;99.90
19817;DHT22;68323;49.394;8.434;2023-08-06T12:11:39;20.00;99.90
19817;DHT22;68323;49.394;8.434;2023-08-06T12:14:05;19.90;99.90
19817;DHT22;68323;49.394;8.434;2023-08-06T12:16:30;19.90;99.90
19817;DHT22;68323;49.394;8.434;2023-08-06T12:18:56;19.90;99.90
19817;DHT22;68323;49.394;8.434;2023-08-06T12:21:22;19.80;99.90
19817;DHT22;68323;49.394;8.434;2023-08-06T12:23:47;19.70;99.90
19817;DHT22;68323;49.394;8.434;2023-08-06T12:26:13;19.70;99.90
19817;DHT22;68323;49.394;8.434;2023-08-06T12:28:38;19.70;99.90
19817;DHT22;68323;49.394;8.434;2023-08-06T12:31:04;19.70;99.90
19817;DHT22;68323;49.394;8.434;2023-08-06T12:33:29;19.70;99.90
19817;DHT22;68323;49.394;8.434;2023-08-06T12:35:55;19.60;99.90
19817;DHT22;68323;49.394;8.434;2023-08-06T12:38:21;19.60;99.90
19817;DHT22;68323;49.394;8.434;2023-08-06T12:40:46;19.50;99.90
19817;DHT22;68323;49.394;8.434;2023-08-06T12:43:12;19.50;99.90
19817;DHT22;68323;49.394;8.434;2023-08-06T12:45:37;19.50;99.90
19817;DHT22;68323;49.394;8.434;2023-08-06T12:48:03;19.50;99.90
19817;DHT22;68323;49.394;8.434;2023-08-06T12:50:29;19.50;99.90
19817;DHT22;68323;49.394;8.434;2023-08-06T12:52:55;19.50;99.90
19817;DHT22;68323;49.394;8.434;2023-08-06T12:55:20;19.60;99.90
19817;DHT22;68323;49.394;8.434;2023-08-06T12:57:46;19.70;99.90
19817;DHT22;68323;49.394;8.434;2023-08-06T13:00:11;19.70;99.90
19817;DHT22;68323;49.394;8.434;2023-08-06T13:02:37;19.80;99.90
19817;DHT22;68323;49.394;8.434;2023-08-06T13:05:03;19.90;99.90
19817;DHT22;68323;49.394;8.434;2023-08-06T13:07:31;20.00;99.90
19817;DHT22;68323;49.394;8.434;2023-08-06T13:09:56;20.00;99.90
19817;DHT22;68323;49.394;8.434;2023-08-06T13:12:22;20.10;99.90
19817;DHT22;68323;49.394;8.434;2023-08-06T13:14:48;20.10;99.90
19817;DHT22;68323;49.394;8.434;2023-08-06T13:17:14;20.10;99.90
19817;DHT22;68323;49.394;8.434;2023-08-06T13:19:39;20.10;99.90
19817;DHT22;68323;49.394;8.434;2023-08-06T13:22:06;20.10;99.90
19817;DHT22;68323;49.394;8.434;2023-08-06T13:24:33;20.00;99.90
19817;DHT22;68323;49.394;8.434;2023-08-06T13:27:00;20.00;99.90
19817;DHT22;68323;49.394;8.434;2023-08-06T13:29:26;20.00;99.90
19817;DHT22;68323;49.394;8.434;2023-08-06T13:31:52;19.90;99.90
19817;DHT22;68323;49.394;8.434;2023-08-06T13:34:18;19.90;99.90
19817;DHT22;68323;49.394;8.434;2023-08-06T13:36:43;19.80;99.90
19817;DHT22;68323;49.394;8.434;2023-08-06T13:39:09;19.70;99.90
19817;DHT22;68323;49.394;8.434;2023-08-06T13:41:34;19.70;99.90
19817;DHT22;68323;49.394;8.434;2023-08-06T13:44:00;19.70;99.90
19817;DHT22;68323;49.394;8.434;2023-08-06T13:46:25;19.70;99.90
19817;DHT22;68323;49.394;8.434;2023-08-06T13:48:51;19.70;99.90
19817;DHT22;68323;49.394;8.434;2023-08-06T13:51:17;19.80;99.90
19817;DHT22;68323;49.394;8.434;2023-08-06T13:53:42;19.90;99.90
19817;DHT22;68323;49.394;8.434;2023-08-06T13:56:11;19.90;99.90
19817;DHT22;68323;49.394;8.434;2023-08-06T13:58:38;19.90;99.90
19817;DHT22;68323;49.394;8.434;2023-08-06T14:01:03;20.00;99.90
19817;DHT22;68323;49.394;8.434;2023-08-06T14:03:29;20.00;99.90
19817;DHT22;68323;49.394;8.434;2023-08-06T14:05:54;20.00;99.90
19817;DHT22;68323;49.394;8.434;2023-08-06T14:08:23;20.00;99.90
19817;DHT22;68323;49.394;8.434;2023-08-06T14:10:50;20.00;99.90
19817;DHT22;68323;49.394;8.434;2023-08-06T14:13:15;20.00;99.90
19817;DHT22;68323;49.394;8.434;2023-08-06T14:15:41;20.00;99.90
19817;DHT22;68323;49.394;8.434;2023-08-06T14:18:07;20.00;99.90
19817;DHT22;68323;49.394;8.434;2023-08-06T14:20:35;20.00;99.90
19817;DHT22;68323;49.394;8.434;2023-08-06T14:23:01;20.00;99.90
19817;DHT22;68323;49.394;8.434;2023-08-06T14:25:27;20.00;99.90
19817;DHT22;68323;49.394;8.434;2023-08-06T14:27:53;20.00;99.90
19817;DHT22;68323;49.394;8.434;2023-08-06T14:30:18;20.00;99.90
19817;DHT22;68323;49.394;8.434;2023-08-06T14:32:44;20.00;99.90
19817;DHT22;68323;49.394;8.434;2023-08-06T14:35:09;20.00;99.90
19817;DHT22;68323;49.394;8.434;2023-08-06T14:37:35;20.10;99.90
19817;DHT22;68323;49.394;8.434;2023-08-06T14:40:01;20.10;99.90
19817;DHT22;68323;49.394;8.434;2023-08-06T14:42:26;20.20;99.90
19817;DHT22;68323;49.394;8.434;2023-08-06T14:44:52;20.30;99.90
19817;DHT22;68323;49.394;8.434;2023-08-06T14:47:17;20.40;99.90
19817;DHT22;68323;49.394;8.434;2023-08-06T14:49:43;20.50;99.90
19817;DHT22;68323;49.394;8.434;2023-08-06T14:52:08;20.50;99.90
19817;DHT22;68323;49.394;8.434;2023-08-06T14:54:34;20.60;99.90
19817;DHT22;68323;49.394;8.434;2023-08-06T14:56:59;20.60;99.90
19817;DHT22;68323;49.394;8.434;2023-08-06T14:59:25;20.60;99.90
19817;DHT22;68323;49.394;8.434;2023-08-06T15:01:50;20.40;99.90
19817;DHT22;68323;49.394;8.434;2023-08-06T15:04:17;20.20;99.90
19817;DHT22;68323;49.394;8.434;2023-08-06T15:06:44;19.90;99.90
19817;DHT22;68323;49.394;8.434;2023-08-06T15:09:09;19.60;99.90
19817;DHT22;68323;49.394;8.434;2023-08-06T15:11:35;19.30;99.90
19817;DHT22;68323;49.394;8.434;2023-08-06T15:14:00;19.10;99.90
19817;DHT22;68323;49.394;8.434;2023-08-06T15:16:26;19.10;99.90
19817;DHT22;68323;49.394;8.434;2023-08-06T15:18:52;19.00;99.90
19817;DHT22;68323;49.394;8.434;2023-08-06T15:21:18;19.00;99.90
19817;DHT22;68323;49.394;8.434;2023-08-06T15:23:43;19.00;99.90
19817;DHT22;68323;49.394;8.434;2023-08-06T15:26:09;19.00;99.90
19817;DHT22;68323;49.394;8.434;2023-08-06T15:28:35;19.00;99.90
19817;DHT22;68323;49.394;8.434;2023-08-06T15:31:01;19.00;99.90
19817;DHT22;68323;49.394;8.434;2023-08-06T15:33:29;19.00;99.90
19817;DHT22;68323;49.394;8.434;2023-08-06T15:35:55;19.00;99.90